sensor_id;sensor_type;location;lat;lon;timestamp;pressure;altitude;pressure_sealevel;temperature;humidity
73516;BME280;61763;51.416;5.442;2023-08-06T00:00:05;100294.03;;;14.15;100.00
73516;BME280;61763;51.416;5.442;2023-08-06T00:02:31;100291.00;;;14.07;100.00
73516;BME280;61763;51.416;5.442;2023-08-06T00:04:58;100285.03;;;14.01;100.00
73516;BME280;61763;51.416;5.442;2023-08-06T00:07:23;100288.09;;;13.97;100.00
73516;BME280;61763;51.416;5.442;2023-08-06T00:09:48;100298.94;;;13.97;100.00
73516;BME280;61763;51.416;5.442;2023-08-06T00:12:14;100292.75;;;13.95;100.00
73516;BME280;61763;51.416;5.442;2023-08-06T00:14:39;100290.44;;;14.01;100.00
73516;BME280;61763;51.416;5.442;2023-08-06T00:17:04;100292.97;;;14.05;100.00
73516;BME280;61763;51.416;5.442;2023-08-06T00:19:31;100293.09;;;14.03;100.00
73516;BME280;61763;51.416;5.442;2023-08-06T00:21:57;100288.84;;;13.99;100.00
73516;BME280;61763;51.416;5.442;2023-08-06T00:24:22;100281.69;;;13.98;100.00
73516;BME280;61763;51.416;5.442;2023-08-06T00:26:47;100286.47;;;13.94;100.00
73516;BME280;61763;51.416;5.442;2023-08-06T00:29:13;100280.50;;;14.02;100.00
73516;BME280;61763;51.416;5.442;2023-08-06T00:31:38;100283.72;;;14.07;100.00
73516;BME280;61763;51.416;5.442;2023-08-06T00:34:03;100289.03;;;14.09;100.00
73516;BME280;61763;51.416;5.442;2023-08-06T00:36:29;100288.78;;;14.12;100.00
73516;BME280;61763;51.416;5.442;2023-08-06T00:38:54;100286.31;;;14.09;100.00
73516;BME280;61763;51.416;5.442;2023-08-06T00:41:21;100279.81;;;13.98;100.00
73516;BME280;61763;51.416;5.442;2023-08-06T00:43:46;100282.00;;;14.06;100.00
73516;BME280;61763;51.416;5.442;2023-08-06T00:46:11;100282.66;;;13.97;100.00
73516;BME280;61763;51.416;5.442;2023-08-06T00:48:37;100280.28;;;13.92;100.00
73516;BME280;61763;51.416;5.442;2023-08-06T00:51:03;100283.78;;;13.94;100.00
73516;BME280;61763;51.416;5.442;2023-08-06T00:53:28;100280.72;;;13.99;100.00
73516;BME280;61763;51.416;5.442;2023-08-06T00:55:54;100276.81;;;14.03;100.00
73516;BME280;61763;51.416;5.442;2023-08-06T00:58:19;100272.69;;;13.97;100.00
73516;BME280;61763;51.416;5.442;2023-08-06T01:00:45;100273.88;;;13.93;100.00
73516;BME280;61763;51.416;5.442;2023-08-06T01:03:10;100273.13;;;13.91;100.00
73516;BME280;61763;51.416;5.442;2023-08-06T01:05:36;100274.41;;;13.98;100.00
73516;BME280;61763;51.416;5.442;2023-08-06T01:15:54;100274.34;;;13.87;100.00
73516;BME280;61763;51.416;5.442;2023-08-06T01:18:25;100270.97;;;13.83;100.00
73516;BME280;61763;51.416;5.442;2023-08-06T01:20:50;100278.47;;;13.80;100.00
73516;BME280;61763;51.416;5.442;2023-08-06T01:23:16;100282.28;;;13.77;100.00
73516;BME280;61763;51.416;5.442;2023-08-06T01:28:44;100277.50;;;13.81;100.00
73516;BME280;61763;51.416;5.442;2023-08-06T01:31:21;100276.75;;;13.79;100.00
73516;BME280;61763;51.416;5.442;2023-08-06T01:33:49;100277.94;;;13.75;100.00
73516;BME280;61763;51.416;5.442;2023-08-06T01:36:18;100272.75;;;13.72;100.00
73516;BME280;61763;51.416;5.442;2023-08-06T01:38:44;100272.09;;;13.68;100.00
73516;BME280;61763;51.416;5.442;2023-08-06T01:41:10;100265.16;;;13.64;100.00
73516;BME280;61763;51.416;5.442;2023-08-06T01:43:35;100280.81;;;13.60;100.00
73516;BME280;61763;51.416;5.442;2023-08-06T01:46:00;100269.31;;;13.57;100.00
73516;BME280;61763;51.416;5.442;2023-08-06T01:48:26;100267.78;;;13.53;100.00
73516;BME280;61763;51.416;5.442;2023-08-06T01:50:52;100271.59;;;13.50;100.00
73516;BME280;61763;51.416;5.442;2023-08-06T01:53:18;100273.41;;;13.49;100.00
73516;BME280;61763;51.416;5.442;2023-08-06T01:55:50;100277.22;;;13.47;100.00
73516;BME280;61763;51.416;5.442;2023-08-06T01:58:15;100266.47;;;13.45;100.00
73516;BME280;61763;51.416;5.442;2023-08-06T02:00:41;100266.38;;;13.47;100.00
73516;BME280;61763;51.416;5.442;2023-08-06T02:03:06;100273.53;;;13.48;100.00
73516;BME280;61763;51.416;5.442;2023-08-06T02:05:32;100273.66;;;13.46;100.00
73516;BME280;61763;51.416;5.442;2023-08-06T02:07:58;100272.22;;;13.54;100.00
73516;BME280;61763;51.416;5.442;2023-08-06T02:10:23;100270.16;;;13.57;100.00
73516;BME280;61763;51.416;5.442;2023-08-06T02:12:49;100269.06;;;13.60;100.00
73516;BME280;61763;51.416;5.442;2023-08-06T02:15:14;100273.63;;;13.59;100.00
73516;BME280;61763;51.416;5.442;2023-08-06T02:17:40;100275.56;;;13.57;100.00
73516;BME280;61763;51.416;5.442;2023-08-06T02:20:06;100272.13;;;13.55;100.00
73516;BME280;61763;51.416;5.442;2023-08-06T02:22:31;100269.63;;;13.52;100.00
73516;BME280;61763;51.416;5.442;2023-08-06T02:24:57;100272.47;;;13.51;100.00
73516;BME280;61763;51.416;5.442;2023-08-06T02:27:22;100265.28;;;13.49;100.00
73516;BME280;61763;51.416;5.442;2023-08-06T02:29:47;100268.97;;;13.48;100.00
73516;BME280;61763;51.416;5.442;2023-08-06T02:32:13;100270.72;;;13.49;100.00
73516;BME280;61763;51.416;5.442;2023-08-06T02:34:38;100268.00;;;13.49;100.00
73516;BME280;61763;51.416;5.442;2023-08-06T02:37:03;100275.28;;;13.49;100.00
73516;BME280;61763;51.416;5.442;2023-08-06T02:39:29;100266.69;;;13.55;100.00
73516;BME280;61763;51.416;5.442;2023-08-06T02:41:54;100267.56;;;13.56;100.00
73516;BME280;61763;51.416;5.442;2023-08-06T02:44:20;100268.09;;;13.61;100.00
73516;BME280;61763;51.416;5.442;2023-08-06T02:46:45;100272.66;;;13.60;100.00
73516;BME280;61763;51.416;5.442;2023-08-06T02:49:10;100271.91;;;13.58;100.00
73516;BME280;61763;51.416;5.442;2023-08-06T02:51:36;100263.53;;;13.61;100.00
73516;BME280;61763;51.416;5.442;2023-08-06T02:54:01;100262.78;;;13.59;100.00
73516;BME280;61763;51.416;5.442;2023-08-06T02:56:26;100264.53;;;13.60;100.00
73516;BME280;61763;51.416;5.442;2023-08-06T02:58:52;100258.34;;;13.58;100.00
73516;BME280;61763;51.416;5.442;2023-08-06T03:01:17;100252.91;;;13.58;100.00
73516;BME280;61763;51.416;5.442;2023-08-06T03:03:43;100257.50;;;13.58;100.00
73516;BME280;61763;51.416;5.442;2023-08-06T03:06:08;100260.09;;;13.59;100.00
73516;BME280;61763;51.416;5.442;2023-08-06T03:08:34;100253.69;;;13.60;100.00
73516;BME280;61763;51.416;5.442;2023-08-06T03:11:00;100249.88;;;13.63;100.00
73516;BME280;61763;51.416;5.442;2023-08-06T03:13:25;100252.47;;;13.64;100.00
73516;BME280;61763;51.416;5.442;2023-08-06T03:15:54;100256.81;;;13.67;100.00
73516;BME280;61763;51.416;5.442;2023-08-06T03:18:20;100254.09;;;13.67;100.00
73516;BME280;61763;51.416;5.442;2023-08-06T03:20:47;100261.16;;;13.70;100.00
73516;BME280;61763;51.416;5.442;2023-08-06T03:23:12;100261.16;;;13.70;100.00
73516;BME280;61763;51.416;5.442;2023-08-06T03:25:38;100267.31;;;13.72;100.00
73516;BME280;61763;51.416;5.442;2023-08-06T03:28:03;100255.50;;;13.73;100.00
73516;BME280;61763;51.416;5.442;2023-08-06T03:30:29;100266.22;;;13.74;100.00
73516;BME280;61763;51.416;5.442;2023-08-06T03:32:54;100258.09;;;13.74;100.00
73516;BME280;61763;51.416;5.442;2023-08-06T03:35:19;100260.81;;;13.74;100.00
73516;BME280;61763;51.416;5.442;2023-08-06T03:37:45;100261.66;;;13.75;100.00
73516;BME280;61763;51.416;5.442;2023-08-06T03:40:11;100259.72;;;13.77;100.00
73516;BME280;61763;51.416;5.442;2023-08-06T03:42:36;100266.00;;;13.77;100.00
73516;BME280;61763;51.416;5.442;2023-08-06T03:45:01;100264.25;;;13.76;100.00
73516;BME280;61763;51.416;5.442;2023-08-06T03:47:28;100267.75;;;13.78;100.00
73516;BME280;61763;51.416;5.442;2023-08-06T03:49:53;100273.16;;;13.78;100.00
73516;BME280;61763;51.416;5.442;2023-08-06T03:52:18;100268.59;;;13.79;100.00
73516;BME280;61763;51.416;5.442;2023-08-06T03:54:44;100275.88;;;13.78;100.00
73516;BME280;61763;51.416;5.442;2023-08-06T03:57:09;100272.59;;;13.86;100.00
73516;BME280;61763;51.416;5.442;2023-08-06T03:59:35;100278.03;;;13.86;100.00
73516;BME280;61763;51.416;5.442;2023-08-06T04:02:01;100269.38;;;13.81;100.00
73516;BME280;61763;51.416;5.442;2023-08-06T04:04:26;100271.44;;;13.77;100.00
73516;BME280;61763;51.416;5.442;2023-08-06T04:06:52;100267.63;;;13.80;100.00
73516;BME280;61763;51.416;5.442;2023-08-06T04:09:17;100269.66;;;13.89;100.00
73516;BME280;61763;51.416;5.442;2023-08-06T04:11:42;100260.47;;;13.79;100.00
73516;BME280;61763;51.416;5.442;2023-08-06T04:14:08;100265.59;;;13.71;100.00
73516;BME280;61763;51.416;5.442;2023-08-06T04:16:33;100261.16;;;13.70;100.00
73516;BME280;61763;51.416;5.442;2023-08-06T04:18:58;100272.84;;;13.70;100.00
73516;BME280;61763;51.416;5.442;2023-08-06T04:21:24;100273.19;;;13.65;100.00
73516;BME280;61763;51.416;5.442;2023-08-06T04:23:49;100271.66;;;13.61;100.00
73516;BME280;61763;51.416;5.442;2023-08-06T04:26:15;100273.75;;;13.58;100.00
73516;BME280;61763;51.416;5.442;2023-08-06T04:28:40;100280.38;;;13.54;100.00
73516;BME280;61763;51.416;5.442;2023-08-06T04:31:05;100278.72;;;13.51;100.00
73516;BME280;61763;51.416;5.442;2023-08-06T04:33:32;100284.38;;;13.48;100.00
73516;BME280;61763;51.416;5.442;2023-08-06T04:35:58;100288.16;;;13.45;100.00
73516;BME280;61763;51.416;5.442;2023-08-06T04:38:24;100288.06;;;13.47;100.00
73516;BME280;61763;51.416;5.442;2023-08-06T04:40:50;100297.94;;;13.48;100.00
73516;BME280;61763;51.416;5.442;2023-08-06T04:43:15;100296.06;;;13.48;100.00
73516;BME280;61763;51.416;5.442;2023-08-06T04:45:51;100293.28;;;13.50;100.00
73516;BME280;61763;51.416;5.442;2023-08-06T04:48:17;100291.31;;;13.52;100.00
73516;BME280;61763;51.416;5.442;2023-08-06T04:50:44;100305.41;;;13.57;100.00
73516;BME280;61763;51.416;5.442;2023-08-06T04:53:09;100305.63;;;13.67;100.00
73516;BME280;61763;51.416;5.442;2023-08-06T04:55:35;100310.25;;;13.78;100.00
73516;BME280;61763;51.416;5.442;2023-08-06T04:58:00;100309.59;;;13.87;100.00
73516;BME280;61763;51.416;5.442;2023-08-06T05:00:25;100317.06;;;13.96;100.00
73516;BME280;61763;51.416;5.442;2023-08-06T05:02:51;100316.84;;;13.99;100.00
73516;BME280;61763;51.416;5.442;2023-08-06T05:05:17;100315.63;;;14.04;100.00
73516;BME280;61763;51.416;5.442;2023-08-06T05:07:43;100318.63;;;14.12;100.00
73516;BME280;61763;51.416;5.442;2023-08-06T05:10:08;100320.69;;;14.21;100.00
73516;BME280;61763;51.416;5.442;2023-08-06T05:12:34;100314.38;;;14.20;100.00
73516;BME280;61763;51.416;5.442;2023-08-06T05:14:59;100319.03;;;14.31;100.00
73516;BME280;61763;51.416;5.442;2023-08-06T05:17:25;100316.81;;;14.36;100.00
73516;BME280;61763;51.416;5.442;2023-08-06T05:19:52;100318.34;;;14.41;100.00
73516;BME280;61763;51.416;5.442;2023-08-06T05:22:17;100313.03;;;14.39;100.00
73516;BME280;61763;51.416;5.442;2023-08-06T05:24:42;100316.34;;;14.43;100.00
73516;BME280;61763;51.416;5.442;2023-08-06T05:27:08;100320.59;;;14.47;100.00
73516;BME280;61763;51.416;5.442;2023-08-06T05:29:34;100319.91;;;14.56;100.00
73516;BME280;61763;51.416;5.442;2023-08-06T05:31:59;100330.59;;;14.70;100.00
73516;BME280;61763;51.416;5.442;2023-08-06T05:34:25;100315.69;;;14.76;100.00
73516;BME280;61763;51.416;5.442;2023-08-06T05:36:50;100325.41;;;14.92;100.00
73516;BME280;61763;51.416;5.442;2023-08-06T05:39:15;100322.97;;;15.11;100.00
73516;BME280;61763;51.416;5.442;2023-08-06T05:41:41;100328.06;;;15.16;100.00
73516;BME280;61763;51.416;5.442;2023-08-06T05:44:06;100332.69;;;15.38;100.00
73516;BME280;61763;51.416;5.442;2023-08-06T05:46:32;100330.84;;;15.50;100.00
73516;BME280;61763;51.416;5.442;2023-08-06T05:48:57;100326.78;;;15.67;100.00
73516;BME280;61763;51.416;5.442;2023-08-06T05:51:23;100328.53;;;15.79;100.00
73516;BME280;61763;51.416;5.442;2023-08-06T05:53:48;100334.72;;;15.92;100.00
73516;BME280;61763;51.416;5.442;2023-08-06T05:56:15;100336.59;;;16.03;100.00
73516;BME280;61763;51.416;5.442;2023-08-06T05:58:41;100334.09;;;16.11;100.00
73516;BME280;61763;51.416;5.442;2023-08-06T06:01:06;100337.19;;;16.18;100.00
73516;BME280;61763;51.416;5.442;2023-08-06T06:03:31;100335.31;;;16.30;100.00
73516;BME280;61763;51.416;5.442;2023-08-06T06:05:57;100345.44;;;16.39;100.00
73516;BME280;61763;51.416;5.442;2023-08-06T06:08:22;100341.94;;;16.49;100.00
73516;BME280;61763;51.416;5.442;2023-08-06T06:10:48;100340.69;;;16.53;100.00
73516;BME280;61763;51.416;5.442;2023-08-06T06:13:14;100349.50;;;16.56;100.00
73516;BME280;61763;51.416;5.442;2023-08-06T06:15:41;100349.72;;;16.53;100.00
73516;BME280;61763;51.416;5.442;2023-08-06T06:18:06;100353.84;;;16.48;100.00
73516;BME280;61763;51.416;5.442;2023-08-06T06:20:32;100356.84;;;16.33;100.00
73516;BME280;61763;51.416;5.442;2023-08-06T06:22:58;100353.88;;;16.25;100.00
73516;BME280;61763;51.416;5.442;2023-08-06T06:25:24;100365.66;;;16.25;100.00
73516;BME280;61763;51.416;5.442;2023-08-06T06:27:49;100373.56;;;16.17;100.00
73516;BME280;61763;51.416;5.442;2023-08-06T06:30:14;100376.66;;;16.13;100.00
73516;BME280;61763;51.416;5.442;2023-08-06T06:32:40;100378.50;;;16.12;100.00
73516;BME280;61763;51.416;5.442;2023-08-06T06:35:06;100388.66;;;15.87;100.00
73516;BME280;61763;51.416;5.442;2023-08-06T06:37:31;100394.19;;;15.74;100.00
73516;BME280;61763;51.416;5.442;2023-08-06T06:39:57;100400.19;;;15.55;100.00
73516;BME280;61763;51.416;5.442;2023-08-06T06:42:22;100405.16;;;15.50;100.00
73516;BME280;61763;51.416;5.442;2023-08-06T06:44:48;100405.34;;;15.36;100.00
73516;BME280;61763;51.416;5.442;2023-08-06T06:47:13;100413.47;;;15.24;100.00
73516;BME280;61763;51.416;5.442;2023-08-06T06:49:39;100417.38;;;15.09;100.00
73516;BME280;61763;51.416;5.442;2023-08-06T06:52:04;100423.31;;;14.90;100.00
73516;BME280;61763;51.416;5.442;2023-08-06T06:54:30;100436.97;;;14.51;100.00
73516;BME280;61763;51.416;5.442;2023-08-06T06:56:55;100432.06;;;14.19;100.00
73516;BME280;61763;51.416;5.442;2023-08-06T06:59:21;100434.16;;;13.90;100.00
73516;BME280;61763;51.416;5.442;2023-08-06T07:01:46;100438.47;;;13.67;100.00
73516;BME280;61763;51.416;5.442;2023-08-06T07:04:12;100442.69;;;13.58;100.00
73516;BME280;61763;51.416;5.442;2023-08-06T07:06:37;100453.44;;;13.60;100.00
73516;BME280;61763;51.416;5.442;2023-08-06T07:09:02;100449.09;;;13.57;100.00
73516;BME280;61763;51.416;5.442;2023-08-06T07:11:28;100453.75;;;13.55;100.00
73516;BME280;61763;51.416;5.442;2023-08-06T07:13:57;100457.69;;;13.64;100.00
73516;BME280;61763;51.416;5.442;2023-08-06T07:16:26;100459.31;;;13.66;100.00
73516;BME280;61763;51.416;5.442;2023-08-06T07:18:52;100464.06;;;13.63;100.00
73516;BME280;61763;51.416;5.442;2023-08-06T07:21:18;100477.94;;;13.58;100.00
73516;BME280;61763;51.416;5.442;2023-08-06T07:23:43;100489.44;;;13.49;100.00
73516;BME280;61763;51.416;5.442;2023-08-06T07:26:09;100493.41;;;13.43;100.00
73516;BME280;61763;51.416;5.442;2023-08-06T07:28:34;100499.84;;;13.28;100.00
73516;BME280;61763;51.416;5.442;2023-08-06T07:31:00;100502.38;;;13.31;100.00
73516;BME280;61763;51.416;5.442;2023-08-06T07:33:25;100503.44;;;13.28;100.00
73516;BME280;61763;51.416;5.442;2023-08-06T07:35:51;100516.00;;;13.29;100.00
73516;BME280;61763;51.416;5.442;2023-08-06T07:38:17;100512.91;;;13.36;100.00
73516;BME280;61763;51.416;5.442;2023-08-06T07:40:42;100517.34;;;13.37;100.00
73516;BME280;61763;51.416;5.442;2023-08-06T07:43:08;100525.47;;;13.37;100.00
73516;BME280;61763;51.416;5.442;2023-08-06T07:45:36;100522.59;;;13.40;100.00
73516;BME280;61763;51.416;5.442;2023-08-06T07:48:03;100534.41;;;13.39;100.00
73516;BME280;61763;51.416;5.442;2023-08-06T07:50:28;100535.16;;;13.41;100.00
73516;BME280;61763;51.416;5.442;2023-08-06T07:52:54;100542.41;;;13.40;100.00
73516;BME280;61763;51.416;5.442;2023-08-06T07:55:19;100541.16;;;13.46;100.00
73516;BME280;61763;51.416;5.442;2023-08-06T07:57:44;100535.94;;;13.43;100.00
73516;BME280;61763;51.416;5.442;2023-08-06T08:00:10;100539.09;;;13.49;100.00
73516;BME280;61763;51.416;5.442;2023-08-06T08:02:36;100547.44;;;13.46;100.00
73516;BME280;61763;51.416;5.442;2023-08-06T08:05:01;100546.25;;;13.51;100.00
73516;BME280;61763;51.416;5.442;2023-08-06T08:07:26;100547.00;;;13.53;100.00
73516;BME280;61763;51.416;5.442;2023-08-06T08:09:54;100551.16;;;13.58;100.00
73516;BME280;61763;51.416;5.442;2023-08-06T08:12:19;100548.34;;;13.60;100.00
73516;BME280;61763;51.416;5.442;2023-08-06T08:14:45;100547.69;;;13.69;100.00
73516;BME280;61763;51.416;5.442;2023-08-06T08:17:11;100559.75;;;13.78;100.00
73516;BME280;61763;51.416;5.442;2023-08-06T08:19:37;100560.56;;;13.93;100.00
73516;BME280;61763;51.416;5.442;2023-08-06T08:22:02;100562.97;;;13.97;100.00
73516;BME280;61763;51.416;5.442;2023-08-06T08:24:28;100562.06;;;13.97;100.00
73516;BME280;61763;51.416;5.442;2023-08-06T08:26:55;100562.41;;;13.92;100.00
73516;BME280;61763;51.416;5.442;2023-08-06T08:29:22;100558.59;;;13.82;100.00
73516;BME280;61763;51.416;5.442;2023-08-06T08:31:47;100569.84;;;13.76;100.00
73516;BME280;61763;51.416;5.442;2023-08-06T08:34:16;100576.25;;;13.75;100.00
73516;BME280;61763;51.416;5.442;2023-08-06T08:36:41;100571.94;;;13.85;100.00
73516;BME280;61763;51.416;5.442;2023-08-06T08:39:07;100575.44;;;14.00;100.00
73516;BME280;61763;51.416;5.442;2023-08-06T08:41:33;100575.66;;;14.10;100.00
73516;BME280;61763;51.416;5.442;2023-08-06T08:43:59;100577.44;;;14.24;100.00
73516;BME280;61763;51.416;5.442;2023-08-06T08:46:32;100571.25;;;14.47;100.00
73516;BME280;61763;51.416;5.442;2023-08-06T08:48:59;100588.50;;;14.59;100.00
73516;BME280;61763;51.416;5.442;2023-08-06T08:51:27;100568.19;;;14.65;100.00
73516;BME280;61763;51.416;5.442;2023-08-06T08:53:52;100570.16;;;14.63;100.00
73516;BME280;61763;51.416;5.442;2023-08-06T08:56:19;100572.88;;;14.63;100.00
73516;BME280;61763;51.416;5.442;2023-08-06T08:58:44;100575.16;;;14.56;100.00
73516;BME280;61763;51.416;5.442;2023-08-06T09:01:11;100580.78;;;14.53;100.00
73516;BME280;61763;51.416;5.442;2023-08-06T09:03:36;100582.53;;;14.54;100.00
73516;BME280;61763;51.416;5.442;2023-08-06T09:06:02;100587.44;;;14.49;100.00
73516;BME280;61763;51.416;5.442;2023-08-06T09:08:34;100595.91;;;14.31;100.00
73516;BME280;61763;51.416;5.442;2023-08-06T09:11:01;100590.69;;;14.28;100.00
73516;BME280;61763;51.416;5.442;2023-08-06T09:13:27;100606.72;;;14.18;100.00
73516;BME280;61763;51.416;5.442;2023-08-06T09:15:52;100607.16;;;14.12;100.00
73516;BME280;61763;51.416;5.442;2023-08-06T09:18:27;100615.72;;;14.06;100.00
73516;BME280;61763;51.416;5.442;2023-08-06T09:20:54;100623.22;;;14.15;100.00
73516;BME280;61763;51.416;5.442;2023-08-06T09:23:19;100630.50;;;14.15;100.00
73516;BME280;61763;51.416;5.442;2023-08-06T09:25:45;100629.63;;;14.14;100.00
73516;BME280;61763;51.416;5.442;2023-08-06T09:28:11;100636.91;;;14.14;100.00
73516;BME280;61763;51.416;5.442;2023-08-06T09:30:37;100640.44;;;14.01;100.00
73516;BME280;61763;51.416;5.442;2023-08-06T09:33:03;100642.19;;;14.02;100.00
73516;BME280;61763;51.416;5.442;2023-08-06T09:35:29;100646.66;;;14.04;100.00
73516;BME280;61763;51.416;5.442;2023-08-06T09:37:56;100652.72;;;13.94;100.00
73516;BME280;61763;51.416;5.442;2023-08-06T09:40:32;100649.09;;;13.94;100.00
73516;BME280;61763;51.416;5.442;2023-08-06T09:42:59;100662.78;;;13.92;100.00
73516;BME280;61763;51.416;5.442;2023-08-06T09:45:51;100660.28;;;13.89;100.00
73516;BME280;61763;51.416;5.442;2023-08-06T09:48:16;100666.06;;;13.97;100.00
73516;BME280;61763;51.416;5.442;2023-08-06T09:50:41;100668.00;;;13.95;100.00
73516;BME280;61763;51.416;5.442;2023-08-06T09:53:08;100671.06;;;14.04;100.00
73516;BME280;61763;51.416;5.442;2023-08-06T09:55:34;100674.91;;;14.14;100.00
73516;BME280;61763;51.416;5.442;2023-08-06T09:58:00;100677.81;;;14.11;100.00
73516;BME280;61763;51.416;5.442;2023-08-06T10:00:26;100672.28;;;14.12;100.00
73516;BME280;61763;51.416;5.442;2023-08-06T10:02:52;100678.81;;;14.23;100.00
73516;BME280;61763;51.416;5.442;2023-08-06T10:05:21;100682.44;;;14.36;100.00
73516;BME280;61763;51.416;5.442;2023-08-06T10:07:48;100686.00;;;14.36;100.00
73516;BME280;61763;51.416;5.442;2023-08-06T10:10:14;100687.22;;;14.45;100.00
73516;BME280;61763;51.416;5.442;2023-08-06T10:12:43;100686.47;;;14.43;100.00
73516;BME280;61763;51.416;5.442;2023-08-06T10:15:13;100685.41;;;14.46;100.00
73516;BME280;61763;51.416;5.442;2023-08-06T10:17:40;100688.97;;;14.46;100.00
73516;BME280;61763;51.416;5.442;2023-08-06T10:20:08;100693.88;;;14.54;100.00
73516;BME280;61763;51.416;5.442;2023-08-06T10:22:34;100692.78;;;14.57;100.00
73516;BME280;61763;51.416;5.442;2023-08-06T10:25:00;100698.44;;;14.53;100.00
73516;BME280;61763;51.416;5.442;2023-08-06T10:30:32;100688.75;;;14.49;100.00
73516;BME280;61763;51.416;5.442;2023-08-06T10:33:02;100689.94;;;14.45;100.00
73516;BME280;61763;51.416;5.442;2023-08-06T10:35:37;100693.53;;;14.46;100.00
73516;BME280;61763;51.416;5.442;2023-08-06T10:38:05;100686.91;;;14.50;100.00
73516;BME280;61763;51.416;5.442;2023-08-06T10:40:31;100688.44;;;14.54;100.00
73516;BME280;61763;51.416;5.442;2023-08-06T10:43:04;100694.06;;;14.51;100.00
73516;BME280;61763;51.416;5.442;2023-08-06T10:45:35;100698.84;;;14.60;100.00
73516;BME280;61763;51.416;5.442;2023-08-06T10:48:01;100698.78;;;14.62;100.00
73516;BME280;61763;51.416;5.442;2023-08-06T10:50:27;100700.31;;;14.66;100.00
73516;BME280;61763;51.416;5.442;2023-08-06T10:52:52;100704.34;;;14.73;100.00
73516;BME280;61763;51.416;5.442;2023-08-06T10:55:28;100698.72;;;14.89;100.00
73516;BME280;61763;51.416;5.442;2023-08-06T10:57:55;100697.41;;;14.95;100.00
73516;BME280;61763;51.416;5.442;2023-08-06T11:00:22;100699.13;;;14.96;100.00
73516;BME280;61763;51.416;5.442;2023-08-06T11:02:49;100694.03;;;15.04;100.00
73516;BME280;61763;51.416;5.442;2023-08-06T11:05:15;100703.69;;;15.08;100.00
73516;BME280;61763;51.416;5.442;2023-08-06T11:07:41;100707.03;;;15.24;100.00
73516;BME280;61763;51.416;5.442;2023-08-06T11:10:09;100710.50;;;15.27;100.00
73516;BME280;61763;51.416;5.442;2023-08-06T11:12:35;100710.41;;;15.28;100.00
73516;BME280;61763;51.416;5.442;2023-08-06T11:15:01;100709.09;;;15.34;100.00
73516;BME280;61763;51.416;5.442;2023-08-06T11:17:28;100708.75;;;15.38;100.00
73516;BME280;61763;51.416;5.442;2023-08-06T11:19:54;100717.56;;;15.42;100.00
73516;BME280;61763;51.416;5.442;2023-08-06T11:22:20;100703.63;;;15.47;100.00
73516;BME280;61763;51.416;5.442;2023-08-06T11:24:46;100713.19;;;15.52;100.00
73516;BME280;61763;51.416;5.442;2023-08-06T11:27:13;100713.19;;;15.52;100.00
73516;BME280;61763;51.416;5.442;2023-08-06T11:29:40;100713.72;;;15.57;100.00
73516;BME280;61763;51.416;5.442;2023-08-06T11:32:05;100708.44;;;15.43;100.00
73516;BME280;61763;51.416;5.442;2023-08-06T11:34:31;100703.66;;;15.34;100.00
73516;BME280;61763;51.416;5.442;2023-08-06T11:36:56;100704.97;;;15.28;100.00
73516;BME280;61763;51.416;5.442;2023-08-06T11:39:22;100711.41;;;15.27;100.00
73516;BME280;61763;51.416;5.442;2023-08-06T11:41:47;100704.09;;;15.28;100.00
73516;BME280;61763;51.416;5.442;2023-08-06T11:44:13;100711.91;;;15.32;100.00
73516;BME280;61763;51.416;5.442;2023-08-06T11:49:17;100712.59;;;15.36;100.00
73516;BME280;61763;51.416;5.442;2023-08-06T11:51:47;100709.66;;;15.39;100.00
73516;BME280;61763;51.416;5.442;2023-08-06T11:54:12;100721.59;;;15.36;100.00
73516;BME280;61763;51.416;5.442;2023-08-06T11:56:38;100714.00;;;15.41;100.00
73516;BME280;61763;51.416;5.442;2023-08-06T11:59:03;100713.00;;;15.42;100.00
73516;BME280;61763;51.416;5.442;2023-08-06T12:01:29;100706.03;;;15.38;100.00
73516;BME280;61763;51.416;5.442;2023-08-06T12:04:00;100709.75;;;15.37;100.00
73516;BME280;61763;51.416;5.442;2023-08-06T12:06:29;100711.69;;;15.48;100.00
73516;BME280;61763;51.416;5.442;2023-08-06T12:08:54;100708.88;;;15.37;100.00
73516;BME280;61763;51.416;5.442;2023-08-06T12:11:23;100720.41;;;15.40;100.00
73516;BME280;61763;51.416;5.442;2023-08-06T12:13:52;100726.25;;;15.47;100.00
73516;BME280;61763;51.416;5.442;2023-08-06T12:16:17;100719.75;;;15.37;100.00
73516;BME280;61763;51.416;5.442;2023-08-06T12:18:44;100711.84;;;15.21;100.00
73516;BME280;61763;51.416;5.442;2023-08-06T12:21:11;100723.25;;;15.26;100.00
73516;BME280;61763;51.416;5.442;2023-08-06T12:23:36;100725.00;;;15.14;100.00
73516;BME280;61763;51.416;5.442;2023-08-06T12:26:02;100730.44;;;15.14;100.00
73516;BME280;61763;51.416;5.442;2023-08-06T12:28:27;100730.22;;;15.04;100.00
73516;BME280;61763;51.416;5.442;2023-08-06T12:30:52;100734.91;;;15.02;100.00
73516;BME280;61763;51.416;5.442;2023-08-06T12:33:20;100735.13;;;14.99;100.00
73516;BME280;61763;51.416;5.442;2023-08-06T12:35:45;100737.41;;;15.05;100.00
73516;BME280;61763;51.416;5.442;2023-08-06T12:38:11;100741.19;;;15.03;100.00
73516;BME280;61763;51.416;5.442;2023-08-06T12:40:36;100733.38;;;14.98;100.00
73516;BME280;61763;51.416;5.442;2023-08-06T12:43:01;100728.50;;;15.03;100.00
73516;BME280;61763;51.416;5.442;2023-08-06T12:45:27;100742.09;;;15.03;100.00
73516;BME280;61763;51.416;5.442;2023-08-06T12:47:52;100743.91;;;15.03;100.00
73516;BME280;61763;51.416;5.442;2023-08-06T12:50:19;100738.59;;;15.14;100.00